Main page
METAR-TAF:

METAR-TAF

Airports :

Tarbes Lourdes, France

Tarbes–Lourdes–Pyrénées Airport

latitude: 43-11N, longitude: 000-00W, elevation: 379 m

Current weather observation

The report was made 28 minutes ago, at 23:00 UTC
Wind 6 kt from the West
Temperature 13°C
Humidity 94%
Pressure 1023 hPa
Visibility: 5000 m
Overcast at a height of 400 ft
mist

METAR: LFBT 222300Z AUTO 28006KT 5000 BR OVC004 13/12 Q1023 TEMPO OVC005

Time: 01:28 (23:28 UTC)

Forecast

The report was made 3 hours and 4 minutes ago, at 20:24 UTC
Forecast valid from 22 at 20 UTC to 23 at 18 UTC
Wind 5 kt from the West
Visibility 10 km or more
Broken clouds at a height of 800 ft
Probability 40%
from 22 at 23 UTC to 23 at 05 UTC
Overcast at a height of 500 ft
Becoming
from 23 at 07 UTC to 23 at 09 UTC
Few clouds at a height of 1600 ft

TAF: LFBT 222024Z 2220/2318 28005KT 9999 BKN008 PROB40 2223/2305 OVC005 BECMG 2307/2309 FEW016

Weather observations and forecasts of more than 4000 airports (METAR and TAF reports).

The available stations are represented by yellow and red dots on the map.

Hover mouse over dot to see the name of the station.

Then click to see weather observations and forecasts.

To change the map : click on the green buttons with a black cross to zoom in, on the green button with a dash to zoom out, or on the green arrows for adjacent maps.


METAR-TAF: